createdAt,value
2022-07-28T00:00:56.515Z,39.30
2022-07-28T00:03:24.186Z,39.40
2022-07-28T00:05:51.161Z,39.40
2022-07-28T00:08:17.984Z,39.50
2022-07-28T00:10:44.736Z,39.50
2022-07-28T00:13:11.814Z,39.60
2022-07-28T00:15:38.605Z,39.60
2022-07-28T00:18:05.470Z,39.70
2022-07-28T00:20:32.473Z,39.80
2022-07-28T00:22:59.215Z,39.80
2022-07-28T00:25:26.258Z,40.00
2022-07-28T00:27:53.357Z,40.00
2022-07-28T00:30:20.425Z,40.10
2022-07-28T00:32:47.134Z,40.20
2022-07-28T00:35:14.941Z,40.30
2022-07-28T00:37:42.705Z,40.50
2022-07-28T00:40:10.854Z,40.60
2022-07-28T00:42:37.831Z,40.70
2022-07-28T00:45:05.254Z,40.60
2022-07-28T00:47:33.611Z,40.70
2022-07-28T00:50:01.993Z,40.70
2022-07-28T00:52:29.020Z,40.70
2022-07-28T00:54:56.798Z,40.80
2022-07-28T00:57:23.489Z,40.80
2022-07-28T00:59:50.168Z,40.80
2022-07-28T01:02:17.316Z,40.90
2022-07-28T01:04:44.137Z,41.00
2022-07-28T01:07:32.890Z,41.10
2022-07-28T01:10:18.710Z,41.40
2022-07-28T01:13:07.337Z,41.70
2022-07-28T01:15:38.964Z,41.40
2022-07-28T01:18:21.944Z,41.60
2022-07-28T01:20:53.488Z,41.60
2022-07-28T01:23:32.584Z,41.70
2022-07-28T01:26:17.318Z,42.10
2022-07-28T01:28:52.530Z,41.70
2022-07-28T01:31:24.691Z,41.70
2022-07-28T01:33:57.016Z,41.80
2022-07-28T01:36:33.153Z,41.90
2022-07-28T01:39:01.416Z,42.00
2022-07-28T01:41:32.142Z,42.10
2022-07-28T01:44:15.760Z,42.10
2022-07-28T01:46:44.582Z,42.90
2022-07-28T01:49:13.820Z,42.50
2022-07-28T01:51:42.796Z,42.50
2022-07-28T01:54:12.493Z,42.50
2022-07-28T01:56:41.630Z,42.50
2022-07-28T01:59:12.230Z,42.50
2022-07-28T02:01:44.038Z,42.70
2022-07-28T02:04:12.636Z,42.70
2022-07-28T02:06:41.666Z,42.60
2022-07-28T02:09:09.001Z,42.60
2022-07-28T02:11:39.643Z,42.60
2022-07-28T02:14:18.687Z,42.70
2022-07-28T02:16:49.849Z,43.00
2022-07-28T02:19:18.614Z,42.70
2022-07-28T02:21:50.095Z,42.70
2022-07-28T02:24:19.559Z,42.70
2022-07-28T02:26:50.563Z,42.70
2022-07-28T02:29:49.093Z,42.80
2022-07-28T02:32:27.158Z,42.80
2022-07-28T02:35:01.315Z,43.00
2022-07-28T02:37:37.791Z,42.90
2022-07-28T02:40:07.854Z,43.00
2022-07-28T02:42:36.230Z,42.90
2022-07-28T02:45:06.633Z,43.00
2022-07-28T02:47:40.545Z,43.10
2022-07-28T02:50:08.577Z,43.30
2022-07-28T02:52:36.251Z,43.20
2022-07-28T02:55:04.317Z,43.20
2022-07-28T02:57:32.009Z,43.30
2022-07-28T02:59:59.506Z,43.40
2022-07-28T03:02:26.644Z,43.40
2022-07-28T03:04:59.730Z,43.40
2022-07-28T03:07:33.258Z,43.50
2022-07-28T03:10:00.549Z,43.60
2022-07-28T03:12:27.445Z,43.60
2022-07-28T03:14:54.362Z,43.70
2022-07-28T03:17:21.732Z,43.70
2022-07-28T03:19:48.577Z,43.70
2022-07-28T03:22:15.786Z,43.80
2022-07-28T03:24:47.971Z,43.90
2022-07-28T03:27:27.573Z,44.00
2022-07-28T03:30:16.301Z,44.20
2022-07-28T03:32:50.967Z,44.50
2022-07-28T03:35:18.616Z,44.10
2022-07-28T03:37:58.941Z,44.00
2022-07-28T03:40:29.520Z,44.50
2022-07-28T03:42:57.893Z,44.20
2022-07-28T03:45:24.812Z,44.30
2022-07-28T03:47:53.863Z,44.30
2022-07-28T03:50:28.618Z,44.40
2022-07-28T03:52:57.059Z,44.70
2022-07-28T03:55:24.941Z,44.50
2022-07-28T03:57:51.725Z,44.50
2022-07-28T04:00:19.738Z,44.50
2022-07-28T04:02:47.363Z,44.60
2022-07-28T04:05:15.632Z,44.70
2022-07-28T04:07:43.227Z,44.80
2022-07-28T04:10:12.685Z,44.80
2022-07-28T04:12:47.281Z,45.00
2022-07-28T04:15:14.845Z,45.20
2022-07-28T04:17:42.726Z,45.00
2022-07-28T04:20:10.318Z,45.00
2022-07-28T04:22:37.153Z,45.10
2022-07-28T04:25:05.253Z,45.10
2022-07-28T04:27:32.020Z,45.20
2022-07-28T04:29:58.829Z,45.70
2022-07-28T04:32:25.606Z,45.30
2022-07-28T04:34:52.371Z,45.30
2022-07-28T04:37:19.176Z,45.40
2022-07-28T04:39:45.923Z,45.50
2022-07-28T04:42:12.619Z,45.60
2022-07-28T04:44:42.304Z,45.70
2022-07-28T04:47:09.498Z,45.80
2022-07-28T04:49:36.166Z,45.80
2022-07-28T04:52:03.563Z,45.90
2022-07-28T04:54:30.376Z,46.00
2022-07-28T04:56:57.248Z,46.00
2022-07-28T04:59:23.998Z,46.10
2022-07-28T05:01:51.765Z,46.60
2022-07-28T05:04:19.308Z,46.40
2022-07-28T05:06:46.293Z,46.20
2022-07-28T05:09:13.061Z,46.20
2022-07-28T05:11:39.760Z,46.20
2022-07-28T05:14:06.622Z,46.30
2022-07-28T05:16:39.322Z,46.70
2022-07-28T05:19:07.904Z,46.90
2022-07-28T05:21:34.626Z,46.70
2022-07-28T05:24:01.663Z,46.70
2022-07-28T05:26:28.622Z,46.90
2022-07-28T05:28:55.590Z,46.90
2022-07-28T05:31:22.447Z,47.00
2022-07-28T05:33:49.534Z,47.30
2022-07-28T05:36:19.255Z,47.30
2022-07-28T05:38:46.179Z,47.30
2022-07-28T05:41:12.898Z,47.30
2022-07-28T05:43:39.968Z,47.40
2022-07-28T05:46:07.099Z,47.50
2022-07-28T05:48:34.561Z,47.40
2022-07-28T05:51:01.499Z,47.50
2022-07-28T05:53:28.339Z,47.40
2022-07-28T05:56:00.721Z,47.40
2022-07-28T05:58:29.565Z,47.60
2022-07-28T06:01:00.028Z,47.70
2022-07-28T06:03:28.666Z,47.90
2022-07-28T06:05:59.181Z,47.90
2022-07-28T06:08:38.362Z,47.90
2022-07-28T06:11:11.933Z,48.00
2022-07-28T06:13:48.504Z,47.90
2022-07-28T06:16:15.460Z,47.90
2022-07-28T06:18:44.053Z,47.90
2022-07-28T06:21:10.989Z,48.00
2022-07-28T06:23:37.749Z,48.00
2022-07-28T06:26:04.507Z,48.00
2022-07-28T06:28:32.962Z,48.20
2022-07-28T06:30:59.777Z,48.20
2022-07-28T06:33:26.509Z,48.30
2022-07-28T06:35:53.202Z,48.30
2022-07-28T06:38:22.649Z,48.30
2022-07-28T06:40:49.586Z,48.40
2022-07-28T06:43:16.346Z,48.30
2022-07-28T06:45:44.940Z,48.50
2022-07-28T06:48:13.665Z,48.40
2022-07-28T06:50:41.661Z,48.40
2022-07-28T06:53:08.454Z,48.30
2022-07-28T06:55:36.101Z,48.30
2022-07-28T06:58:04.309Z,48.10
2022-07-28T07:00:31.935Z,48.10
2022-07-28T07:03:00.604Z,48.20
2022-07-28T07:05:31.840Z,48.10
2022-07-28T07:07:58.782Z,47.90
2022-07-28T07:10:25.559Z,47.70
2022-07-28T07:12:52.514Z,47.50
2022-07-28T07:15:19.246Z,47.40
2022-07-28T07:17:46.035Z,47.20
2022-07-28T07:20:14.342Z,47.10
2022-07-28T07:22:45.605Z,47.10
2022-07-28T07:25:15.711Z,47.10
2022-07-28T07:27:43.070Z,47.00
2022-07-28T07:30:10.783Z,46.90
2022-07-28T07:32:38.216Z,47.00
2022-07-28T07:35:06.330Z,46.80
2022-07-28T07:37:33.590Z,46.80
2022-07-28T07:40:01.319Z,46.60
2022-07-28T07:42:28.532Z,46.50
2022-07-28T07:44:55.966Z,46.40
2022-07-28T07:47:22.798Z,46.30
2022-07-28T07:49:49.916Z,46.30
2022-07-28T07:52:16.612Z,46.30
2022-07-28T07:54:43.739Z,46.00
2022-07-28T07:57:10.680Z,46.00
2022-07-28T07:59:37.819Z,45.80
2022-07-28T08:02:05.133Z,45.80
2022-07-28T08:04:32.089Z,45.70
2022-07-28T08:07:04.658Z,45.50
2022-07-28T08:09:32.886Z,45.40
2022-07-28T08:11:59.991Z,45.30
2022-07-28T08:14:26.960Z,45.20
2022-07-28T08:16:56.521Z,45.00
2022-07-28T08:19:23.239Z,44.60
2022-07-28T08:21:53.278Z,44.80
2022-07-28T08:24:33.070Z,44.70
2022-07-28T08:27:02.144Z,44.70
2022-07-28T08:29:29.145Z,44.70
2022-07-28T08:31:56.015Z,44.80
2022-07-28T08:34:31.337Z,44.60
2022-07-28T08:37:02.368Z,44.60
2022-07-28T08:39:30.238Z,44.40
2022-07-28T08:42:17.872Z,44.30
2022-07-28T08:45:01.905Z,44.20
2022-07-28T08:47:40.485Z,44.00
2022-07-28T08:50:16.055Z,44.00
2022-07-28T08:52:46.071Z,43.90
2022-07-28T08:55:19.443Z,43.90
2022-07-28T08:57:47.127Z,43.90
2022-07-28T09:00:14.262Z,44.00
2022-07-28T09:02:47.032Z,43.90
2022-07-28T09:05:23.067Z,43.80
2022-07-28T09:07:54.650Z,44.00
2022-07-28T09:10:22.059Z,44.20
2022-07-28T09:12:48.945Z,44.40
2022-07-28T09:15:15.807Z,44.50
2022-07-28T09:17:43.053Z,44.60
2022-07-28T09:20:11.837Z,44.70
2022-07-28T09:22:58.473Z,44.50
2022-07-28T09:25:26.414Z,43.20
2022-07-28T09:27:54.691Z,44.20
2022-07-28T09:30:29.845Z,43.80
2022-07-28T09:33:11.276Z,42.60
2022-07-28T09:35:58.987Z,41.20
2022-07-28T09:38:30.024Z,42.10
2022-07-28T09:41:01.262Z,41.10
2022-07-28T09:43:32.238Z,40.00
2022-07-28T09:46:29.201Z,38.70
2022-07-28T09:48:59.545Z,37.60
2022-07-28T09:51:28.610Z,38.00
2022-07-28T09:54:10.975Z,37.40
2022-07-28T09:56:39.768Z,35.90
2022-07-28T09:59:08.130Z,36.00
2022-07-28T10:01:53.442Z,35.60
2022-07-28T10:04:36.370Z,34.50
2022-07-28T10:07:05.526Z,34.10
2022-07-28T10:09:33.055Z,34.70
2022-07-28T10:12:24.316Z,33.70
2022-07-28T10:14:53.563Z,31.80
2022-07-28T10:17:33.063Z,33.50
2022-07-28T10:20:01.712Z,32.10
2022-07-28T10:22:33.150Z,32.50
2022-07-28T10:25:09.631Z,32.10
2022-07-28T10:27:39.721Z,31.10
2022-07-28T10:30:07.490Z,31.70
2022-07-28T10:32:41.365Z,31.40
2022-07-28T10:35:14.131Z,30.30
2022-07-28T10:38:00.203Z,30.50
2022-07-28T10:40:31.905Z,30.20
2022-07-28T10:42:59.814Z,30.00
2022-07-28T10:45:48.115Z,29.90
2022-07-28T10:48:15.329Z,29.60
2022-07-28T10:50:42.807Z,29.50
2022-07-28T10:53:17.409Z,29.30
2022-07-28T10:55:57.874Z,28.90
2022-07-28T10:58:50.769Z,28.40
2022-07-28T11:01:53.362Z,28.40
2022-07-28T11:04:52.328Z,28.20
2022-07-28T11:07:20.684Z,27.30
2022-07-28T11:09:47.999Z,27.60
2022-07-28T11:12:15.422Z,27.50
2022-07-28T11:14:43.538Z,27.80
2022-07-28T11:17:13.503Z,27.80
2022-07-28T11:22:34.426Z,27.50
2022-07-28T11:25:20.668Z,27.80
2022-07-28T11:27:51.997Z,27.80
2022-07-28T11:30:19.343Z,27.60
2022-07-28T11:32:55.553Z,27.30
2022-07-28T11:35:26.740Z,26.70
2022-07-28T11:38:02.800Z,26.40
2022-07-28T11:40:31.198Z,26.30
2022-07-28T11:43:37.104Z,26.50
2022-07-28T11:46:07.008Z,25.10
2022-07-28T11:48:38.086Z,26.40
2022-07-28T11:51:04.867Z,25.90
2022-07-28T11:53:43.753Z,26.00
2022-07-28T11:56:29.123Z,25.90
2022-07-28T11:59:07.152Z,25.90
2022-07-28T12:01:37.109Z,25.80
2022-07-28T12:04:13.355Z,26.00
2022-07-28T12:06:42.973Z,26.10
2022-07-28T12:09:11.230Z,26.40
2022-07-28T12:11:42.225Z,26.40
2022-07-28T12:14:10.329Z,26.30
2022-07-28T12:16:42.743Z,26.40
2022-07-28T12:19:14.430Z,26.10
2022-07-28T12:21:45.986Z,26.10
2022-07-28T12:24:26.056Z,25.60
2022-07-28T12:26:52.825Z,25.50
2022-07-28T12:29:20.450Z,25.30
2022-07-28T12:31:56.658Z,25.40
2022-07-28T12:34:29.277Z,25.20
2022-07-28T12:37:04.078Z,25.40
2022-07-28T12:39:34.117Z,25.40
2022-07-28T12:42:03.446Z,25.50
2022-07-28T12:44:38.840Z,25.50
2022-07-28T12:47:08.165Z,25.00
2022-07-28T12:49:36.447Z,24.90
2022-07-28T12:52:24.576Z,24.80
2022-07-28T12:54:55.206Z,24.20
2022-07-28T12:57:50.966Z,24.60
2022-07-28T13:00:21.900Z,24.80
2022-07-28T13:02:50.516Z,25.00
2022-07-28T13:05:31.969Z,25.00
2022-07-28T13:08:04.832Z,24.90
2022-07-28T13:10:32.123Z,24.90
2022-07-28T13:13:04.061Z,25.00
2022-07-28T13:15:31.881Z,24.80
2022-07-28T13:17:59.435Z,24.90
2022-07-28T13:20:26.450Z,24.90
2022-07-28T13:22:54.397Z,25.00
2022-07-28T13:25:21.566Z,25.10
2022-07-28T13:27:54.264Z,25.30
2022-07-28T13:30:22.663Z,25.30
2022-07-28T13:32:49.483Z,25.20
2022-07-28T13:35:18.797Z,25.20
2022-07-28T13:37:46.008Z,25.30
2022-07-28T13:40:13.143Z,25.40
2022-07-28T13:42:40.025Z,25.20
2022-07-28T13:45:21.331Z,25.20
2022-07-28T13:47:52.168Z,25.10
2022-07-28T13:50:19.784Z,25.00
2022-07-28T13:52:47.116Z,24.80
2022-07-28T13:55:19.283Z,24.70
2022-07-28T13:57:49.733Z,24.60
2022-07-28T14:00:18.105Z,24.50
2022-07-28T14:02:48.735Z,24.50
2022-07-28T14:05:16.194Z,24.40
2022-07-28T14:07:48.488Z,24.50
2022-07-28T14:10:17.871Z,24.50
2022-07-28T14:12:46.081Z,24.60
2022-07-28T14:15:14.074Z,24.60
2022-07-28T14:17:43.432Z,24.70
2022-07-28T14:20:13.231Z,24.70
2022-07-28T14:22:40.032Z,25.00
2022-07-28T14:25:07.551Z,25.10
2022-07-28T14:27:34.686Z,25.20
2022-07-28T14:30:03.376Z,25.20
2022-07-28T14:32:32.040Z,25.20
2022-07-28T14:34:59.093Z,25.30
2022-07-28T14:37:26.331Z,25.10
2022-07-28T14:39:53.216Z,25.20
2022-07-28T14:42:19.966Z,25.30
2022-07-28T14:44:46.728Z,25.40
2022-07-28T14:47:13.666Z,25.50
2022-07-28T14:49:58.138Z,25.50
2022-07-28T14:52:26.826Z,25.60
2022-07-28T14:54:54.529Z,25.50
2022-07-28T14:57:21.286Z,25.50
2022-07-28T15:00:10.523Z,25.60
2022-07-28T15:02:37.502Z,25.60
2022-07-28T15:05:05.394Z,25.70
2022-07-28T15:07:32.514Z,25.90
2022-07-28T15:09:59.431Z,26.00
2022-07-28T15:12:26.292Z,26.10
2022-07-28T15:14:53.115Z,26.20
2022-07-28T15:17:20.289Z,26.20
2022-07-28T15:19:47.517Z,26.30
2022-07-28T15:22:14.511Z,26.40
2022-07-28T15:24:42.119Z,26.40
2022-07-28T15:27:13.166Z,26.40
2022-07-28T15:29:39.968Z,26.40
2022-07-28T15:32:10.781Z,26.30
2022-07-28T15:34:39.834Z,26.50
2022-07-28T15:37:06.932Z,26.60
2022-07-28T15:39:34.073Z,26.70
2022-07-28T15:42:01.298Z,26.70
2022-07-28T15:44:29.797Z,26.80
2022-07-28T15:46:56.693Z,26.70
2022-07-28T15:49:23.575Z,26.80
2022-07-28T15:51:50.477Z,26.80
2022-07-28T15:54:18.070Z,26.80
2022-07-28T15:56:45.136Z,26.90
2022-07-28T15:59:12.071Z,26.90
2022-07-28T16:01:45.146Z,26.90
2022-07-28T16:04:12.829Z,27.00
2022-07-28T16:06:58.637Z,27.00
2022-07-28T16:09:25.469Z,27.00
2022-07-28T16:12:13.054Z,27.10
2022-07-28T16:14:41.911Z,27.20
2022-07-28T16:17:09.858Z,27.00
2022-07-28T16:19:48.955Z,27.20
2022-07-28T16:22:17.362Z,27.20
2022-07-28T16:24:45.875Z,27.30
2022-07-28T16:27:12.745Z,27.30
2022-07-28T16:29:39.715Z,27.40
2022-07-28T16:32:06.824Z,27.50
2022-07-28T16:34:34.294Z,27.60
2022-07-28T16:37:01.022Z,27.60
2022-07-28T16:39:31.880Z,27.70
2022-07-28T16:41:58.588Z,27.70
2022-07-28T16:44:26.143Z,27.70
2022-07-28T16:46:52.902Z,27.80
2022-07-28T16:49:19.770Z,28.00
2022-07-28T16:51:46.746Z,27.90
2022-07-28T16:54:14.364Z,27.90
2022-07-28T16:56:42.540Z,27.90
2022-07-28T16:59:09.518Z,28.00
2022-07-28T17:01:52.077Z,28.00
2022-07-28T17:04:19.902Z,28.10
2022-07-28T17:06:47.671Z,28.10
2022-07-28T17:09:14.718Z,28.20
2022-07-28T17:11:42.526Z,28.20
2022-07-28T17:14:10.810Z,28.20
2022-07-28T17:16:38.571Z,28.30
2022-07-28T17:19:05.448Z,28.30
2022-07-28T17:21:32.181Z,28.20
2022-07-28T17:23:58.961Z,28.20
2022-07-28T17:29:12.714Z,28.40
2022-07-28T17:31:39.665Z,28.40
2022-07-28T17:34:08.011Z,28.50
2022-07-28T17:36:35.497Z,28.50
2022-07-28T17:39:03.629Z,28.60
2022-07-28T17:41:30.396Z,28.50
2022-07-28T17:43:57.126Z,28.60
2022-07-28T17:46:26.560Z,28.70
2022-07-28T17:48:53.743Z,28.70
2022-07-28T17:51:20.818Z,28.80
2022-07-28T17:53:48.778Z,28.80
2022-07-28T17:56:17.081Z,28.90
2022-07-28T17:58:44.133Z,29.00
2022-07-28T18:01:12.606Z,28.90
2022-07-28T18:03:58.979Z,29.30
2022-07-28T18:06:35.815Z,29.00
2022-07-28T18:09:08.315Z,29.20
2022-07-28T18:11:37.594Z,29.20
2022-07-28T18:14:24.042Z,29.20
2022-07-28T18:16:50.718Z,29.20
2022-07-28T18:19:17.630Z,29.30
2022-07-28T18:21:44.302Z,29.40
2022-07-28T18:24:11.192Z,29.40
2022-07-28T18:26:37.919Z,29.60
2022-07-28T18:29:04.890Z,29.70
2022-07-28T18:31:31.902Z,29.80
2022-07-28T18:33:59.148Z,29.90
2022-07-28T18:36:25.896Z,29.90
2022-07-28T18:38:52.941Z,30.00
2022-07-28T18:41:19.650Z,30.00
2022-07-28T18:43:46.309Z,30.00
2022-07-28T18:46:13.765Z,30.10
2022-07-28T18:48:40.547Z,30.20
2022-07-28T18:51:07.405Z,30.30
2022-07-28T18:53:35.605Z,30.40
2022-07-28T18:56:02.274Z,30.60
2022-07-28T18:58:29.760Z,30.70
2022-07-28T19:00:56.612Z,30.80
2022-07-28T19:03:23.446Z,30.90
2022-07-28T19:05:50.482Z,30.90
2022-07-28T19:08:17.281Z,31.00
2022-07-28T19:10:44.182Z,31.10
2022-07-28T19:13:13.219Z,31.30
2022-07-28T19:15:41.287Z,31.30
2022-07-28T19:18:11.024Z,31.40
2022-07-28T19:20:40.449Z,31.40
2022-07-28T19:23:07.306Z,31.60
2022-07-28T19:25:35.997Z,31.60
2022-07-28T19:28:04.154Z,31.60
2022-07-28T19:30:32.049Z,31.70
2022-07-28T19:32:59.152Z,31.70
2022-07-28T19:35:26.361Z,31.70
2022-07-28T19:37:53.347Z,31.80
2022-07-28T19:40:20.129Z,31.90
2022-07-28T19:42:48.317Z,32.00
2022-07-28T19:45:15.413Z,32.00
2022-07-28T19:47:42.522Z,32.00
2022-07-28T19:50:09.548Z,32.20
2022-07-28T19:52:37.416Z,32.10
2022-07-28T19:55:06.138Z,32.20
2022-07-28T19:57:34.223Z,32.20
2022-07-28T20:00:04.202Z,32.30
2022-07-28T20:02:38.734Z,32.40
2022-07-28T20:05:27.828Z,32.40
2022-07-28T20:07:54.626Z,32.40
2022-07-28T20:10:21.978Z,32.50
2022-07-28T20:12:49.037Z,32.60
2022-07-28T20:15:15.894Z,32.70
2022-07-28T20:17:42.826Z,32.70
2022-07-28T20:20:12.444Z,32.70
2022-07-28T20:22:39.980Z,32.80
2022-07-28T20:25:09.512Z,32.80
2022-07-28T20:27:41.146Z,32.90
2022-07-28T20:30:09.761Z,32.90
2022-07-28T20:32:37.675Z,32.90
2022-07-28T20:35:05.821Z,33.00
2022-07-28T20:37:36.974Z,33.10
2022-07-28T20:40:09.539Z,33.10
2022-07-28T20:42:36.793Z,33.30
2022-07-28T20:45:04.391Z,33.20
2022-07-28T20:47:34.782Z,33.20
2022-07-28T20:50:02.225Z,33.30
2022-07-28T20:52:29.061Z,33.30
2022-07-28T20:54:55.925Z,33.30
2022-07-28T20:57:23.206Z,33.50
2022-07-28T20:59:52.112Z,33.60
2022-07-28T21:02:24.281Z,33.60
2022-07-28T21:04:51.653Z,33.80
2022-07-28T21:07:59.614Z,33.70
2022-07-28T21:10:07.823Z,33.80
2022-07-28T21:12:36.688Z,33.80
2022-07-28T21:15:05.739Z,33.80
2022-07-28T21:17:32.606Z,33.90
2022-07-28T21:19:59.452Z,33.90
2022-07-28T21:22:26.607Z,34.00
2022-07-28T21:24:55.511Z,34.10
2022-07-28T21:27:23.502Z,34.00
2022-07-28T21:32:18.349Z,34.20
2022-07-28T21:34:45.216Z,34.30
2022-07-28T21:37:13.009Z,34.30
2022-07-28T21:39:40.216Z,34.40
2022-07-28T21:42:08.908Z,34.40
2022-07-28T21:44:37.303Z,34.50
2022-07-28T21:47:04.483Z,34.60
2022-07-28T21:49:32.307Z,34.60
2022-07-28T21:51:59.768Z,34.70
2022-07-28T21:54:26.959Z,34.80
2022-07-28T21:56:53.833Z,34.90
2022-07-28T21:59:20.596Z,34.90
2022-07-28T22:01:47.673Z,35.00
2022-07-28T22:04:14.847Z,35.10
2022-07-28T22:06:46.286Z,35.10
2022-07-28T22:09:14.927Z,35.20
2022-07-28T22:11:42.029Z,35.20
2022-07-28T22:14:08.920Z,35.30
2022-07-28T22:16:35.960Z,35.30
2022-07-28T22:19:03.311Z,35.40
2022-07-28T22:21:30.105Z,35.40
2022-07-28T22:23:57.557Z,35.90
2022-07-28T22:26:24.253Z,35.60
2022-07-28T22:28:51.202Z,35.60
2022-07-28T22:31:17.924Z,35.60
2022-07-28T22:33:44.849Z,35.70
2022-07-28T22:36:11.546Z,35.80
2022-07-28T22:38:38.480Z,35.90
2022-07-28T22:41:05.320Z,35.90
2022-07-28T22:43:33.484Z,36.00
2022-07-28T22:46:00.624Z,36.00
2022-07-28T22:48:27.923Z,36.10
2022-07-28T22:50:54.654Z,36.10
2022-07-28T22:53:21.622Z,36.10
2022-07-28T22:55:48.295Z,36.20
2022-07-28T22:58:15.193Z,36.20
2022-07-28T23:00:42.019Z,36.20
2022-07-28T23:03:12.875Z,36.30
2022-07-28T23:05:40.462Z,36.30
2022-07-28T23:08:07.321Z,36.30
2022-07-28T23:10:34.545Z,36.40
2022-07-28T23:13:01.512Z,36.40
2022-07-28T23:15:40.763Z,36.40
2022-07-28T23:18:14.164Z,36.40
2022-07-28T23:20:42.505Z,36.50
2022-07-28T23:23:10.952Z,36.40
2022-07-28T23:25:40.482Z,36.50
2022-07-28T23:28:07.551Z,36.50
2022-07-28T23:30:34.562Z,36.50
2022-07-28T23:33:01.431Z,36.50
2022-07-28T23:35:28.303Z,36.50
2022-07-28T23:37:55.011Z,36.50
2022-07-28T23:40:22.096Z,36.60
2022-07-28T23:42:48.997Z,36.70
2022-07-28T23:45:15.703Z,36.80
2022-07-28T23:47:42.611Z,36.80
2022-07-28T23:50:09.577Z,36.90
2022-07-28T23:52:36.670Z,37.00
2022-07-28T23:55:03.696Z,37.10
2022-07-28T23:57:31.494Z,37.10
2022-07-28T23:59:59.380Z,37.00
